createdAt,value
2022-12-27T00:00:43.291Z,82.10
2022-12-27T00:03:49.890Z,82.31
2022-12-27T00:06:56.462Z,82.30
2022-12-27T00:10:03.272Z,82.32
2022-12-27T00:13:10.830Z,82.33
2022-12-27T00:16:25.665Z,82.36
2022-12-27T00:19:30.782Z,82.35
2022-12-27T00:22:31.764Z,82.34
2022-12-27T00:25:37.783Z,82.31
2022-12-27T00:28:45.902Z,82.32
2022-12-27T00:31:52.224Z,82.33
2022-12-27T00:35:00.305Z,82.37
2022-12-27T00:38:07.715Z,82.32
2022-12-27T00:41:12.743Z,82.29
2022-12-27T00:44:18.103Z,82.23
2022-12-27T00:47:24.507Z,82.03
2022-12-27T00:50:31.967Z,81.75
2022-12-27T00:53:38.005Z,81.59
2022-12-27T00:56:44.839Z,81.49
2022-12-27T00:59:50.384Z,81.48
2022-12-27T01:02:56.432Z,81.58
2022-12-27T01:06:03.686Z,81.65
2022-12-27T01:09:10.755Z,81.67
2022-12-27T01:12:16.936Z,81.56
2022-12-27T01:15:25.485Z,81.50
2022-12-27T01:18:31.251Z,81.42
2022-12-27T01:21:38.732Z,81.37
2022-12-27T01:24:47.341Z,81.33
2022-12-27T01:27:53.862Z,81.42
2022-12-27T01:30:59.226Z,81.48
2022-12-27T01:34:12.823Z,81.54
2022-12-27T01:37:19.052Z,81.62
2022-12-27T01:40:27.493Z,81.65
2022-12-27T01:43:33.268Z,81.52
2022-12-27T01:46:40.783Z,81.41
2022-12-27T01:49:46.913Z,81.24
2022-12-27T01:52:57.042Z,81.17
2022-12-27T01:56:11.237Z,81.17
2022-12-27T01:59:22.948Z,81.19
2022-12-27T02:02:28.856Z,81.25
2022-12-27T02:05:36.164Z,81.33
2022-12-27T02:09:24.164Z,81.41
2022-12-27T02:12:30.929Z,81.53
2022-12-27T02:15:37.070Z,81.61
2022-12-27T02:18:43.220Z,81.61
2022-12-27T02:22:27.570Z,81.67
2022-12-27T02:25:50.319Z,81.64
2022-12-27T02:29:26.332Z,81.72
2022-12-27T02:32:41.079Z,81.99
2022-12-27T02:35:55.219Z,81.97
2022-12-27T02:39:04.441Z,81.93
2022-12-27T02:42:28.399Z,82.07
2022-12-27T02:45:52.815Z,82.08
2022-12-27T02:49:28.119Z,81.98
2022-12-27T02:53:11.806Z,81.91
2022-12-27T02:57:02.910Z,82.02
2022-12-27T03:00:52.724Z,82.00
2022-12-27T03:04:48.581Z,81.92
2022-12-27T03:08:16.723Z,81.88
2022-12-27T03:11:42.123Z,81.94
2022-12-27T03:15:12.070Z,81.94
2022-12-27T03:18:30.053Z,82.02
2022-12-27T03:22:07.691Z,82.08
2022-12-27T03:25:34.154Z,82.09
2022-12-27T03:29:00.997Z,82.07
2022-12-27T03:32:30.738Z,82.07
2022-12-27T03:35:39.400Z,82.02
2022-12-27T03:38:44.598Z,81.94
2022-12-27T03:42:12.829Z,81.95
2022-12-27T03:45:23.280Z,81.94
2022-12-27T03:48:29.291Z,82.04
2022-12-27T03:51:36.471Z,81.99
2022-12-27T03:54:46.329Z,82.01
2022-12-27T03:57:54.005Z,82.03
2022-12-27T04:00:53.578Z,82.02
2022-12-27T04:03:45.871Z,82.04
2022-12-27T04:06:51.827Z,82.13
2022-12-27T04:10:15.720Z,82.16
2022-12-27T04:13:40.970Z,82.17
2022-12-27T04:17:04.539Z,82.24
2022-12-27T04:20:29.051Z,82.25
2022-12-27T04:23:53.514Z,82.35
2022-12-27T04:27:19.500Z,82.40
2022-12-27T04:30:43.472Z,82.46
2022-12-27T04:34:07.411Z,82.46
2022-12-27T04:37:14.074Z,82.45
2022-12-27T04:40:40.114Z,82.39
2022-12-27T04:44:06.407Z,82.38
2022-12-27T04:47:30.964Z,82.40
2022-12-27T04:51:02.594Z,82.36
2022-12-27T04:54:28.018Z,82.39
2022-12-27T04:57:33.434Z,82.28
2022-12-27T05:01:00.766Z,82.27
2022-12-27T05:04:08.240Z,82.18
2022-12-27T05:07:32.030Z,82.08
2022-12-27T05:10:56.239Z,82.14
2022-12-27T05:14:08.080Z,82.27
2022-12-27T05:17:15.817Z,82.23
2022-12-27T05:20:22.425Z,82.33
2022-12-27T05:23:45.418Z,82.39
2022-12-27T05:26:51.641Z,82.40
2022-12-27T05:29:58.517Z,82.43
2022-12-27T05:33:07.457Z,82.36
2022-12-27T05:36:13.731Z,82.38
2022-12-27T05:39:20.374Z,82.39
2022-12-27T05:42:25.524Z,82.46
2022-12-27T05:45:30.318Z,82.44
2022-12-27T05:48:36.778Z,82.44
2022-12-27T05:51:42.591Z,82.42
2022-12-27T05:54:48.903Z,82.44
2022-12-27T05:57:54.750Z,82.37
2022-12-27T06:01:00.745Z,82.39
2022-12-27T06:04:06.667Z,82.41
2022-12-27T06:07:11.724Z,82.44
2022-12-27T06:10:18.175Z,82.47
2022-12-27T06:13:24.883Z,82.54
2022-12-27T06:16:30.535Z,82.54
2022-12-27T06:19:36.449Z,82.55
2022-12-27T06:22:42.298Z,82.54
2022-12-27T06:25:47.979Z,82.54
2022-12-27T06:28:56.406Z,82.61
2022-12-27T06:32:02.729Z,82.64
2022-12-27T06:35:10.992Z,82.52
2022-12-27T06:38:22.256Z,82.55
2022-12-27T06:41:29.647Z,82.55
2022-12-27T06:44:35.425Z,82.39
2022-12-27T06:47:41.799Z,82.33
2022-12-27T06:50:53.165Z,82.41
2022-12-27T06:53:59.478Z,82.38
2022-12-27T06:57:06.160Z,82.20
2022-12-27T07:00:14.215Z,82.12
2022-12-27T07:03:42.487Z,82.07
2022-12-27T07:06:55.324Z,82.01
2022-12-27T07:10:01.373Z,82.10
2022-12-27T07:13:06.547Z,82.18
2022-12-27T07:16:11.791Z,82.21
2022-12-27T07:19:23.760Z,82.22
2022-12-27T07:22:38.601Z,82.30
2022-12-27T07:25:51.007Z,82.37
2022-12-27T07:28:59.985Z,82.20
2022-12-27T07:32:07.998Z,82.21
2022-12-27T07:35:16.021Z,82.31
2022-12-27T07:38:24.524Z,82.21
2022-12-27T07:41:31.950Z,82.12
2022-12-27T07:44:38.131Z,82.11
2022-12-27T07:47:43.087Z,81.92
2022-12-27T07:50:53.682Z,82.04
2022-12-27T07:54:08.005Z,82.15
2022-12-27T07:57:29.762Z,82.21
2022-12-27T08:00:37.545Z,82.27
2022-12-27T08:03:43.314Z,82.13
2022-12-27T08:06:50.210Z,82.14
2022-12-27T08:09:59.599Z,82.18
2022-12-27T08:13:10.555Z,82.18
2022-12-27T08:16:17.679Z,82.21
2022-12-27T08:22:44.347Z,82.24
2022-12-27T08:25:52.634Z,82.10
2022-12-27T08:29:00.913Z,82.01
2022-12-27T08:32:22.409Z,82.00
2022-12-27T08:35:53.534Z,81.93
2022-12-27T08:39:09.664Z,81.96
2022-12-27T08:42:14.896Z,81.92
2022-12-27T08:45:22.158Z,81.91
2022-12-27T08:48:30.340Z,82.12
2022-12-27T08:51:41.289Z,82.32
2022-12-27T08:54:45.349Z,82.31
2022-12-27T08:57:51.515Z,82.17
2022-12-27T09:00:58.149Z,82.09
2022-12-27T09:04:03.510Z,82.01
2022-12-27T09:07:08.935Z,81.93
2022-12-27T09:10:15.445Z,82.05
2022-12-27T09:13:21.129Z,81.96
2022-12-27T09:16:30.871Z,81.95
2022-12-27T09:19:39.584Z,81.91
2022-12-27T09:22:44.928Z,81.96
2022-12-27T09:25:51.693Z,81.94
2022-12-27T09:28:59.309Z,82.11
2022-12-27T09:32:04.727Z,82.22
2022-12-27T09:35:12.541Z,82.29
2022-12-27T09:38:18.652Z,82.27
2022-12-27T09:45:11.677Z,82.18
2022-12-27T09:48:32.715Z,82.17
2022-12-27T09:51:44.741Z,82.17
2022-12-27T09:55:04.717Z,82.27
2022-12-27T09:58:13.838Z,82.28
2022-12-27T10:01:36.781Z,82.04
2022-12-27T10:05:18.437Z,81.91
2022-12-27T10:08:45.132Z,81.90
2022-12-27T10:12:20.344Z,81.71
2022-12-27T10:15:58.041Z,81.68
2022-12-27T10:19:29.313Z,81.67
2022-12-27T10:22:54.843Z,81.77
2022-12-27T10:26:02.393Z,81.87
2022-12-27T10:29:19.884Z,81.87
2022-12-27T10:32:28.372Z,81.94
2022-12-27T10:35:36.229Z,82.00
2022-12-27T10:38:47.384Z,81.86
2022-12-27T10:42:18.134Z,81.77
2022-12-27T10:45:51.276Z,81.86
2022-12-27T10:49:20.956Z,81.78
2022-12-27T10:52:36.257Z,81.82
2022-12-27T10:55:53.420Z,81.81
2022-12-27T10:59:03.308Z,81.88
2022-12-27T11:02:24.055Z,81.98
2022-12-27T11:05:39.915Z,82.07
2022-12-27T11:08:51.518Z,82.02
2022-12-27T11:11:59.060Z,81.97
2022-12-27T11:15:30.899Z,81.93
2022-12-27T11:18:37.075Z,82.04
2022-12-27T11:21:44.745Z,82.17
2022-12-27T11:24:52.572Z,82.34
2022-12-27T11:28:08.346Z,82.40
2022-12-27T11:31:33.204Z,82.41
2022-12-27T11:34:46.467Z,82.44
2022-12-27T11:37:55.237Z,82.54
2022-12-27T11:41:01.193Z,82.50
2022-12-27T11:44:15.851Z,82.48
2022-12-27T11:47:48.049Z,82.48
2022-12-27T11:51:05.793Z,82.45
2022-12-27T11:55:05.859Z,82.45
2022-12-27T11:58:34.380Z,82.51
2022-12-27T12:01:55.305Z,82.46
2022-12-27T12:05:27.229Z,82.52
2022-12-27T12:09:10.938Z,82.51
2022-12-27T12:12:37.810Z,82.54
2022-12-27T12:15:51.694Z,82.52
2022-12-27T12:19:20.265Z,82.48
2022-12-27T12:22:44.522Z,82.45
2022-12-27T12:26:25.419Z,82.47
2022-12-27T12:29:38.761Z,82.46
2022-12-27T12:33:06.328Z,82.46
2022-12-27T12:36:53.462Z,82.49
2022-12-27T12:40:31.116Z,82.46
2022-12-27T12:44:08.123Z,82.54
2022-12-27T12:47:41.256Z,82.59
2022-12-27T12:51:18.146Z,82.61
2022-12-27T12:55:00.446Z,82.52
2022-12-27T12:58:33.211Z,82.62
2022-12-27T13:01:51.171Z,82.64
2022-12-27T13:05:26.880Z,82.66
2022-12-27T13:08:56.422Z,82.67
2022-12-27T13:12:54.112Z,82.66
2022-12-27T13:16:36.079Z,82.59
2022-12-27T13:20:19.579Z,82.66
2022-12-27T13:23:47.615Z,82.71
2022-12-27T13:27:02.505Z,82.75
2022-12-27T13:30:26.205Z,82.86
2022-12-27T13:33:43.853Z,82.87
2022-12-27T13:37:26.658Z,82.89
2022-12-27T13:40:58.155Z,82.96
2022-12-27T13:44:24.735Z,82.96
2022-12-27T13:47:50.621Z,82.88
2022-12-27T13:51:12.681Z,82.93
2022-12-27T13:54:57.360Z,82.90
2022-12-27T13:58:25.788Z,82.84
2022-12-27T14:01:45.284Z,82.83
2022-12-27T14:05:04.893Z,82.74
2022-12-27T14:09:01.302Z,82.79
2022-12-27T14:12:55.001Z,82.83
2022-12-27T14:16:28.350Z,82.81
2022-12-27T14:19:51.738Z,82.86
2022-12-27T14:23:10.513Z,82.85
2022-12-27T14:26:50.533Z,82.86
2022-12-27T14:30:43.583Z,82.90
2022-12-27T14:34:37.264Z,82.95
2022-12-27T14:38:33.579Z,83.00
2022-12-27T14:42:08.497Z,83.02
2022-12-27T14:45:31.123Z,83.11
2022-12-27T14:48:55.960Z,83.11
2022-12-27T14:52:19.948Z,83.08
2022-12-27T14:55:43.872Z,83.06
2022-12-27T14:59:02.331Z,83.10
2022-12-27T15:02:15.292Z,83.13
2022-12-27T15:05:59.879Z,83.15
2022-12-27T15:09:32.859Z,83.18
2022-12-27T15:13:16.859Z,83.12
2022-12-27T15:16:59.259Z,83.17
2022-12-27T15:20:26.134Z,83.17
2022-12-27T15:24:00.826Z,83.18
2022-12-27T15:27:31.817Z,83.16
2022-12-27T15:31:09.200Z,83.10
2022-12-27T15:35:02.838Z,83.12
2022-12-27T15:38:21.183Z,83.17
2022-12-27T15:41:38.749Z,83.23
2022-12-27T15:45:12.166Z,83.16
2022-12-27T15:48:46.101Z,83.17
2022-12-27T15:52:07.599Z,83.19
2022-12-27T15:55:43.592Z,83.25
2022-12-27T15:58:49.858Z,83.29
2022-12-27T16:01:55.440Z,83.40
2022-12-27T16:05:13.134Z,83.40
2022-12-27T16:08:27.090Z,83.36
2022-12-27T16:11:32.763Z,83.36
2022-12-27T16:14:44.385Z,83.40
2022-12-27T16:18:08.627Z,83.44
2022-12-27T16:21:30.522Z,83.34
2022-12-27T16:24:39.321Z,83.36
2022-12-27T16:27:47.285Z,83.37
2022-12-27T16:31:03.606Z,83.40
2022-12-27T16:34:10.985Z,83.48
2022-12-27T16:37:17.130Z,83.47
2022-12-27T16:40:55.524Z,83.50
2022-12-27T16:44:38.547Z,83.52
2022-12-27T16:48:13.101Z,83.59
2022-12-27T16:51:48.836Z,83.64
2022-12-27T16:55:21.346Z,83.66
2022-12-27T16:58:43.048Z,83.67
2022-12-27T17:02:02.471Z,83.70
2022-12-27T17:05:11.500Z,83.72
2022-12-27T17:08:28.961Z,83.74
2022-12-27T17:11:42.256Z,83.75
2022-12-27T17:14:50.999Z,83.76
2022-12-27T17:17:59.446Z,83.79
2022-12-27T17:21:11.947Z,83.79
2022-12-27T17:24:35.716Z,83.74
2022-12-27T17:28:00.876Z,83.70
2022-12-27T17:31:20.501Z,83.69
2022-12-27T17:34:43.909Z,83.70
2022-12-27T17:38:03.300Z,83.65
2022-12-27T17:41:57.956Z,83.62
2022-12-27T17:45:21.381Z,83.61
2022-12-27T17:48:37.235Z,83.57
2022-12-27T17:51:44.513Z,83.58
2022-12-27T17:55:08.071Z,83.61
2022-12-27T17:58:18.474Z,83.54
2022-12-27T18:01:23.280Z,83.62
2022-12-27T18:04:38.508Z,83.72
2022-12-27T18:07:45.105Z,83.78
2022-12-27T18:10:52.946Z,83.75
2022-12-27T18:14:07.104Z,83.74
2022-12-27T18:17:14.497Z,83.70
2022-12-27T18:20:44.025Z,83.71
2022-12-27T18:24:00.227Z,83.67
2022-12-27T18:27:16.675Z,83.56
2022-12-27T18:30:25.816Z,83.53
2022-12-27T18:33:33.631Z,83.45
2022-12-27T18:36:56.147Z,83.42
2022-12-27T18:40:13.974Z,83.51
2022-12-27T18:43:22.769Z,83.62
2022-12-27T18:46:47.214Z,83.64
2022-12-27T18:49:57.213Z,83.66
2022-12-27T18:53:02.903Z,83.67
2022-12-27T18:56:24.496Z,83.75
2022-12-27T18:59:39.983Z,83.74
2022-12-27T19:02:51.100Z,83.76
2022-12-27T19:06:16.629Z,83.74
2022-12-27T19:09:29.295Z,83.76
2022-12-27T19:12:45.254Z,83.74
2022-12-27T19:15:58.201Z,83.74
2022-12-27T19:19:09.183Z,83.77
2022-12-27T19:22:15.355Z,83.79
2022-12-27T19:25:41.358Z,83.74
2022-12-27T19:28:47.594Z,83.69
2022-12-27T19:31:55.418Z,83.70
2022-12-27T19:35:07.303Z,83.74
2022-12-27T19:38:13.139Z,83.80
2022-12-27T19:41:17.756Z,83.74
2022-12-27T19:44:27.383Z,83.78
2022-12-27T19:47:33.517Z,83.90
2022-12-27T19:50:39.119Z,83.90
2022-12-27T19:53:57.670Z,83.97
2022-12-27T19:57:01.338Z,84.06
2022-12-27T20:00:12.406Z,84.08
2022-12-27T20:03:13.839Z,84.16
2022-12-27T20:06:24.041Z,84.22
2022-12-27T20:09:28.466Z,84.30
2022-12-27T20:12:35.268Z,84.34
2022-12-27T20:15:41.789Z,84.38
2022-12-27T20:18:48.361Z,84.44
2022-12-27T20:21:55.090Z,84.52
2022-12-27T20:25:01.574Z,84.53
2022-12-27T20:28:07.668Z,84.57
2022-12-27T20:31:08.358Z,84.54
2022-12-27T20:34:17.233Z,84.55
2022-12-27T20:37:24.907Z,84.57
2022-12-27T20:40:31.424Z,84.54
2022-12-27T20:43:37.707Z,84.57
2022-12-27T20:46:44.666Z,84.61
2022-12-27T20:49:52.887Z,84.60
2022-12-27T20:52:59.467Z,84.60
2022-12-27T20:56:16.360Z,84.61
2022-12-27T20:59:23.591Z,84.63
2022-12-27T21:02:30.318Z,84.61
2022-12-27T21:05:39.608Z,84.59
2022-12-27T21:08:55.971Z,84.59
2022-12-27T21:11:57.385Z,84.60
2022-12-27T21:15:05.354Z,84.63
2022-12-27T21:18:14.285Z,84.57
2022-12-27T21:21:21.622Z,84.53
2022-12-27T21:24:28.196Z,84.54
2022-12-27T21:27:35.534Z,84.54
2022-12-27T21:30:40.875Z,84.52
2022-12-27T21:33:47.199Z,84.53
2022-12-27T21:36:54.180Z,84.52
2022-12-27T21:40:00.691Z,84.43
2022-12-27T21:43:07.710Z,84.36
2022-12-27T21:46:13.701Z,84.30
2022-12-27T21:49:28.165Z,84.23
2022-12-27T21:52:33.524Z,84.17
2022-12-27T21:55:39.797Z,84.14
2022-12-27T21:58:47.980Z,84.08
2022-12-27T22:01:56.274Z,84.01
2022-12-27T22:05:04.391Z,83.97
2022-12-27T22:08:12.424Z,83.96
2022-12-27T22:11:18.096Z,83.98
2022-12-27T22:14:26.013Z,83.99
2022-12-27T22:17:32.753Z,83.99
2022-12-27T22:20:45.113Z,84.01
2022-12-27T22:23:50.783Z,84.01
2022-12-27T22:26:57.240Z,84.03
2022-12-27T22:30:03.838Z,84.06
2022-12-27T22:33:09.729Z,84.11
2022-12-27T22:36:21.027Z,84.12
2022-12-27T22:39:26.860Z,84.13
2022-12-27T22:42:32.738Z,84.13
2022-12-27T22:45:37.682Z,84.09
2022-12-27T22:48:45.360Z,84.10
2022-12-27T22:51:52.303Z,84.07
2022-12-27T22:55:04.327Z,84.05
2022-12-27T22:58:07.836Z,83.96
2022-12-27T23:01:14.712Z,84.03
2022-12-27T23:04:21.897Z,83.99
2022-12-27T23:08:05.146Z,83.99
2022-12-27T23:10:35.916Z,84.03
2022-12-27T23:13:43.287Z,84.06
2022-12-27T23:16:59.674Z,84.04
2022-12-27T23:20:06.309Z,84.08
2022-12-27T23:23:12.670Z,84.06
2022-12-27T23:26:25.456Z,84.05
2022-12-27T23:29:31.387Z,84.11
2022-12-27T23:32:36.914Z,84.14
2022-12-27T23:35:42.932Z,84.16
2022-12-27T23:38:48.404Z,84.17
2022-12-27T23:41:53.482Z,84.12
2022-12-27T23:44:59.175Z,84.06
2022-12-27T23:48:04.498Z,84.03
2022-12-27T23:51:11.219Z,84.01
2022-12-27T23:54:16.109Z,84.04
2022-12-27T23:57:22.830Z,84.10
